createdAt,value
2018-07-19T00:00:50.181Z,16.80
2018-07-19T00:01:58.248Z,16.66
2018-07-19T00:03:06.312Z,16.73
2018-07-19T00:04:14.394Z,16.66
2018-07-19T00:05:22.471Z,16.69
2018-07-19T00:06:30.531Z,16.76
2018-07-19T00:07:38.594Z,16.66
2018-07-19T00:08:46.851Z,16.59
2018-07-19T00:09:54.922Z,16.68
2018-07-19T00:11:03.003Z,16.74
2018-07-19T00:12:11.326Z,16.74
2018-07-19T00:13:19.110Z,16.62
2018-07-19T00:14:27.188Z,16.72
2018-07-19T00:15:35.268Z,16.66
2018-07-19T00:16:43.310Z,16.73
2018-07-19T00:17:51.440Z,16.66
2018-07-19T00:18:59.506Z,16.73
2018-07-19T00:20:07.527Z,16.69
2018-07-19T00:21:15.832Z,16.66
2018-07-19T00:22:23.682Z,16.74
2018-07-19T00:23:31.749Z,16.66
2018-07-19T00:24:39.793Z,16.66
2018-07-19T00:25:47.866Z,16.73
2018-07-19T00:26:55.923Z,16.66
2018-07-19T00:28:03.992Z,16.59
2018-07-19T00:29:12.082Z,16.64
2018-07-19T00:30:20.137Z,16.55
2018-07-19T00:31:28.195Z,16.59
2018-07-19T00:32:36.261Z,16.66
2018-07-19T00:33:44.324Z,16.69
2018-07-19T00:34:52.401Z,16.64
2018-07-19T00:36:00.477Z,16.64
2018-07-19T00:37:08.795Z,16.72
2018-07-19T00:38:16.604Z,16.64
2018-07-19T00:39:24.679Z,16.65
2018-07-19T00:40:32.714Z,16.65
2018-07-19T00:41:40.795Z,16.65
2018-07-19T00:42:48.841Z,16.69
2018-07-19T00:43:56.944Z,16.65
2018-07-19T00:45:05.001Z,16.61
2018-07-19T00:46:13.068Z,16.57
2018-07-19T00:47:21.119Z,16.57
2018-07-19T00:48:29.187Z,16.58
2018-07-19T00:49:37.264Z,16.47
2018-07-19T00:50:45.326Z,16.47
2018-07-19T00:51:53.404Z,16.46
2018-07-19T00:53:01.459Z,16.49
2018-07-19T00:54:09.519Z,16.49
2018-07-19T00:55:17.599Z,16.58
2018-07-19T00:56:25.696Z,16.59
2018-07-19T00:57:33.731Z,16.59
2018-07-19T00:58:41.788Z,16.57
2018-07-19T00:59:49.880Z,16.58
2018-07-19T01:00:57.952Z,16.49
2018-07-19T01:02:05.998Z,16.50
2018-07-19T01:03:14.077Z,16.49
2018-07-19T01:04:22.151Z,16.40
2018-07-19T01:05:30.211Z,16.54
2018-07-19T01:06:38.382Z,16.49
2018-07-19T01:07:46.346Z,16.54
2018-07-19T01:08:54.397Z,16.54
2018-07-19T01:10:02.480Z,16.39
2018-07-19T01:11:10.537Z,16.39
2018-07-19T01:12:18.604Z,16.40
2018-07-19T01:13:26.672Z,16.40
2018-07-19T01:14:34.746Z,16.37
2018-07-19T01:15:42.803Z,16.37
2018-07-19T01:16:50.965Z,16.32
2018-07-19T01:17:58.926Z,16.31
2018-07-19T01:19:07.016Z,16.26
2018-07-19T01:20:15.089Z,16.24
2018-07-19T01:21:23.150Z,16.25
2018-07-19T01:22:31.223Z,16.13
2018-07-19T01:23:39.247Z,16.13
2018-07-19T01:24:47.347Z,16.10
2018-07-19T01:25:55.415Z,16.16
2018-07-19T01:27:03.490Z,15.92
2018-07-19T01:28:11.558Z,16.08
2018-07-19T01:29:19.613Z,15.94
2018-07-19T01:30:27.683Z,15.92
2018-07-19T01:31:35.757Z,15.94
2018-07-19T01:32:43.821Z,16.02
2018-07-19T01:33:51.914Z,15.94
2018-07-19T01:34:59.957Z,15.98
2018-07-19T01:36:08.034Z,15.94
2018-07-19T01:37:16.109Z,15.85
2018-07-19T01:38:24.166Z,15.94
2018-07-19T01:39:32.603Z,15.88
2018-07-19T01:40:40.309Z,15.91
2018-07-19T01:41:48.375Z,15.91
2018-07-19T01:42:56.435Z,15.90
2018-07-19T01:44:04.479Z,15.96
2018-07-19T01:45:12.615Z,15.85
2018-07-19T01:46:20.646Z,15.92
2018-07-19T01:47:28.675Z,15.85
2018-07-19T01:48:36.784Z,15.84
2018-07-19T01:49:44.843Z,15.87
2018-07-19T01:50:52.917Z,15.85
2018-07-19T01:52:00.975Z,15.87
2018-07-19T01:53:09.032Z,15.81
2018-07-19T01:54:17.112Z,15.85
2018-07-19T01:55:25.185Z,15.84
2018-07-19T01:56:33.244Z,15.84
2018-07-19T01:57:41.312Z,15.83
2018-07-19T01:58:49.375Z,15.85
2018-07-19T01:59:57.506Z,15.83
2018-07-19T02:01:05.526Z,15.83
2018-07-19T02:02:13.640Z,15.78
2018-07-19T02:03:21.667Z,15.80
2018-07-19T02:04:29.716Z,15.88
2018-07-19T02:05:37.794Z,15.88
2018-07-19T02:06:45.874Z,15.81
2018-07-19T02:07:53.937Z,15.81
2018-07-19T02:09:02.002Z,15.83
2018-07-19T02:10:10.060Z,15.87
2018-07-19T02:11:18.108Z,15.73
2018-07-19T02:12:26.213Z,15.83
2018-07-19T02:13:34.279Z,15.81
2018-07-19T02:14:42.340Z,15.81
2018-07-19T02:15:50.400Z,15.84
2018-07-19T02:16:58.463Z,15.84
2018-07-19T02:18:06.533Z,15.80
2018-07-19T02:19:14.601Z,15.84
2018-07-19T02:20:22.669Z,15.87
2018-07-19T02:21:30.729Z,15.85
2018-07-19T02:22:38.820Z,15.87
2018-07-19T02:23:46.876Z,15.73
2018-07-19T02:24:54.961Z,15.80
2018-07-19T02:26:03.011Z,15.78
2018-07-19T02:27:11.080Z,15.80
2018-07-19T02:28:19.119Z,15.84
2018-07-19T02:29:27.210Z,15.85
2018-07-19T02:30:35.543Z,15.84
2018-07-19T02:31:43.336Z,15.78
2018-07-19T02:32:51.397Z,15.85
2018-07-19T02:33:59.489Z,15.81
2018-07-19T02:35:07.525Z,15.75
2018-07-19T02:36:15.596Z,15.80
2018-07-19T02:37:23.671Z,15.76
2018-07-19T02:38:31.951Z,15.72
2018-07-19T02:39:39.992Z,15.72
2018-07-19T02:40:48.053Z,15.72
2018-07-19T02:41:56.127Z,15.76
2018-07-19T02:43:04.452Z,15.75
2018-07-19T02:44:12.355Z,15.75
2018-07-19T02:45:20.315Z,15.75
2018-07-19T02:46:28.399Z,15.73
2018-07-19T02:47:36.472Z,15.73
2018-07-19T02:48:44.535Z,15.72
2018-07-19T02:49:52.613Z,15.67
2018-07-19T02:51:00.686Z,15.70
2018-07-19T02:52:08.693Z,15.72
2018-07-19T02:53:16.818Z,15.66
2018-07-19T02:54:24.864Z,15.52
2018-07-19T02:55:32.939Z,15.55
2018-07-19T02:56:40.980Z,15.52
2018-07-19T02:57:49.027Z,15.57
2018-07-19T02:58:57.116Z,15.51
2018-07-19T03:00:05.173Z,15.52
2018-07-19T03:01:13.258Z,15.48
2018-07-19T03:02:21.323Z,15.48
2018-07-19T03:03:29.397Z,15.44
2018-07-19T03:04:37.472Z,15.35
2018-07-19T03:05:45.509Z,15.44
2018-07-19T03:06:53.587Z,15.33
2018-07-19T03:08:01.658Z,15.35
2018-07-19T03:09:09.692Z,15.35
2018-07-19T03:10:17.774Z,15.30
2018-07-19T03:11:25.837Z,15.30
2018-07-19T03:12:33.935Z,15.36
2018-07-19T03:13:41.995Z,15.29
2018-07-19T03:14:50.048Z,15.26
2018-07-19T03:15:58.091Z,15.23
2018-07-19T03:17:06.171Z,15.29
2018-07-19T03:18:14.270Z,15.32
2018-07-19T03:19:22.310Z,15.29
2018-07-19T03:20:30.393Z,15.27
2018-07-19T03:21:38.430Z,15.33
2018-07-19T03:22:46.497Z,15.26
2018-07-19T03:23:54.572Z,15.35
2018-07-19T03:25:02.649Z,15.33
2018-07-19T03:26:10.705Z,15.33
2018-07-19T03:27:18.765Z,15.29
2018-07-19T03:28:26.841Z,15.25
2018-07-19T03:29:34.900Z,15.27
2018-07-19T03:30:42.976Z,15.23
2018-07-19T03:31:51.034Z,15.19
2018-07-19T03:32:59.128Z,15.14
2018-07-19T03:34:07.182Z,15.18
2018-07-19T03:35:15.249Z,15.17
2018-07-19T03:36:23.300Z,15.12
2018-07-19T03:37:31.353Z,15.17
2018-07-19T03:38:39.437Z,15.11
2018-07-19T03:39:47.502Z,15.15
2018-07-19T03:40:55.561Z,15.18
2018-07-19T03:42:03.647Z,15.27
2018-07-19T03:43:11.704Z,15.19
2018-07-19T03:44:19.767Z,15.26
2018-07-19T03:45:27.820Z,15.27
2018-07-19T03:46:35.899Z,15.29
2018-07-19T03:47:43.946Z,15.26
2018-07-19T03:48:52.028Z,15.27
2018-07-19T03:50:01.147Z,15.30
2018-07-19T03:51:08.183Z,15.27
2018-07-19T03:52:16.241Z,15.39
2018-07-19T03:53:24.337Z,15.33
2018-07-19T03:54:32.373Z,15.26
2018-07-19T03:55:40.427Z,15.35
2018-07-19T03:56:48.479Z,15.32
2018-07-19T03:57:56.569Z,15.37
2018-07-19T03:59:04.640Z,15.26
2018-07-19T04:00:12.697Z,15.29
2018-07-19T04:01:26.236Z,15.32
2018-07-19T04:02:30.267Z,15.33
2018-07-19T04:03:38.299Z,15.32
2018-07-19T04:04:46.367Z,15.37
2018-07-19T04:05:54.423Z,15.37
2018-07-19T04:07:02.476Z,15.35
2018-07-19T04:08:10.576Z,15.30
2018-07-19T04:09:18.611Z,15.30
2018-07-19T04:10:26.997Z,15.33
2018-07-19T04:11:34.758Z,15.35
2018-07-19T04:12:42.831Z,15.36
2018-07-19T04:13:50.881Z,15.39
2018-07-19T04:14:58.948Z,15.45
2018-07-19T04:16:07.002Z,15.33
2018-07-19T04:17:15.091Z,15.37
2018-07-19T04:18:23.191Z,15.36
2018-07-19T04:19:31.217Z,15.33
2018-07-19T04:20:39.284Z,15.36
2018-07-19T04:21:47.366Z,15.44
2018-07-19T04:22:55.426Z,15.30
2018-07-19T04:24:03.479Z,15.43
2018-07-19T04:25:11.580Z,15.43
2018-07-19T04:26:19.663Z,15.45
2018-07-19T04:27:27.684Z,15.45
2018-07-19T04:28:35.741Z,15.47
2018-07-19T04:29:43.822Z,15.48
2018-07-19T04:30:51.885Z,15.48
2018-07-19T04:31:59.951Z,15.50
2018-07-19T04:33:08.019Z,15.48
2018-07-19T04:34:16.070Z,15.44
2018-07-19T04:35:24.357Z,15.50
2018-07-19T04:36:32.441Z,15.60
2018-07-19T04:37:41.196Z,15.57
2018-07-19T04:38:48.543Z,15.60
2018-07-19T04:39:56.612Z,15.59
2018-07-19T04:41:05.040Z,15.67
2018-07-19T04:42:12.758Z,15.66
2018-07-19T04:43:20.819Z,15.67
2018-07-19T04:44:28.893Z,15.73
2018-07-19T04:45:36.974Z,15.76
2018-07-19T04:46:45.041Z,15.72
2018-07-19T04:47:53.349Z,15.75
2018-07-19T04:49:01.148Z,15.75
2018-07-19T04:50:11.127Z,15.80
2018-07-19T04:51:17.292Z,15.81
2018-07-19T04:52:25.358Z,15.83
2018-07-19T04:53:33.413Z,15.85
2018-07-19T04:54:41.593Z,15.85
2018-07-19T04:55:49.526Z,15.88
2018-07-19T04:56:57.635Z,15.92
2018-07-19T04:58:05.693Z,15.92
2018-07-19T04:59:16.288Z,15.88
2018-07-19T05:00:24.230Z,15.92
2018-07-19T05:01:32.289Z,16.02
2018-07-19T05:02:40.373Z,15.91
2018-07-19T05:03:48.442Z,15.94
2018-07-19T05:04:56.498Z,16.03
2018-07-19T05:06:04.568Z,16.10
2018-07-19T05:07:12.642Z,16.26
2018-07-19T05:08:21.146Z,16.66
2018-07-19T05:09:28.762Z,17.41
2018-07-19T05:10:36.847Z,18.03
2018-07-19T05:11:45.116Z,18.23
2018-07-19T05:12:56.470Z,18.51
2018-07-19T05:14:06.707Z,18.26
2018-07-19T05:15:15.974Z,18.08
2018-07-19T05:16:24.030Z,18.03
2018-07-19T05:17:32.105Z,17.95
2018-07-19T05:18:40.215Z,17.76
2018-07-19T05:19:48.225Z,17.71
2018-07-19T05:20:56.296Z,17.71
2018-07-19T05:22:04.383Z,17.59
2018-07-19T05:23:12.496Z,17.57
2018-07-19T05:24:20.579Z,17.56
2018-07-19T05:25:28.570Z,17.50
2018-07-19T05:26:36.654Z,17.54
2018-07-19T05:27:44.692Z,17.52
2018-07-19T05:28:52.784Z,17.38
2018-07-19T05:30:00.850Z,17.34
2018-07-19T05:31:08.892Z,17.35
2018-07-19T05:32:16.987Z,17.27
2018-07-19T05:33:25.049Z,17.30
2018-07-19T05:34:33.190Z,17.32
2018-07-19T05:35:41.192Z,17.30
2018-07-19T05:36:50.684Z,17.28
2018-07-19T05:38:01.510Z,17.31
2018-07-19T05:39:05.390Z,17.30
2018-07-19T05:40:13.469Z,17.31
2018-07-19T05:41:21.498Z,17.31
2018-07-19T05:42:29.601Z,17.44
2018-07-19T05:43:37.653Z,17.39
2018-07-19T05:44:45.719Z,17.42
2018-07-19T05:45:53.807Z,17.49
2018-07-19T05:47:01.858Z,17.53
2018-07-19T05:48:09.930Z,17.52
2018-07-19T05:49:17.992Z,17.60
2018-07-19T05:50:26.063Z,17.53
2018-07-19T05:51:34.151Z,17.72
2018-07-19T05:52:42.196Z,17.73
2018-07-19T05:53:50.270Z,17.78
2018-07-19T05:54:58.328Z,17.86
2018-07-19T05:56:06.395Z,18.00
2018-07-19T05:57:15.059Z,18.03
2018-07-19T05:58:23.220Z,17.98
2018-07-19T05:59:33.227Z,18.00
2018-07-19T06:00:39.251Z,18.08
2018-07-19T06:01:47.349Z,18.13
2018-07-19T06:02:55.420Z,18.19
2018-07-19T06:04:03.475Z,18.23
2018-07-19T06:05:11.549Z,18.21
2018-07-19T06:06:19.617Z,18.34
2018-07-19T06:07:27.692Z,18.34
2018-07-19T06:08:35.754Z,18.49
2018-07-19T06:09:43.974Z,18.41
2018-07-19T06:10:51.905Z,18.51
2018-07-19T06:11:59.974Z,18.49
2018-07-19T06:13:08.041Z,18.63
2018-07-19T06:14:16.102Z,18.60
2018-07-19T06:15:24.175Z,18.71
2018-07-19T06:16:32.232Z,18.78
2018-07-19T06:17:40.300Z,18.81
2018-07-19T06:18:48.365Z,18.79
2018-07-19T06:19:56.446Z,18.97
2018-07-19T06:21:04.516Z,18.91
2018-07-19T06:22:12.564Z,18.97
2018-07-19T06:23:20.648Z,19.04
2018-07-19T06:24:28.706Z,19.00
2018-07-19T06:25:36.809Z,19.17
2018-07-19T06:26:44.866Z,19.22
2018-07-19T06:27:52.928Z,19.27
2018-07-19T06:29:07.313Z,19.39
2018-07-19T06:30:09.063Z,19.52
2018-07-19T06:31:17.124Z,19.55
2018-07-19T06:32:25.185Z,19.57
2018-07-19T06:33:33.279Z,19.63
2018-07-19T06:34:41.342Z,19.64
2018-07-19T06:35:49.393Z,19.77
2018-07-19T06:36:57.468Z,19.94
2018-07-19T06:38:05.561Z,20.11
2018-07-19T06:39:17.036Z,20.15
2018-07-19T06:40:25.106Z,20.26
2018-07-19T06:41:33.176Z,20.26
2018-07-19T06:42:41.255Z,20.36
2018-07-19T06:43:49.351Z,20.49
2018-07-19T06:44:57.380Z,20.48
2018-07-19T06:46:05.547Z,20.50
2018-07-19T06:47:13.521Z,20.49
2018-07-19T06:48:21.589Z,20.52
2018-07-19T06:49:29.944Z,20.48
2018-07-19T06:50:37.727Z,20.59
2018-07-19T06:51:45.808Z,20.67
2018-07-19T06:52:53.878Z,20.67
2018-07-19T06:54:01.957Z,20.71
2018-07-19T06:55:10.016Z,20.83
2018-07-19T06:56:18.087Z,20.86
2018-07-19T06:57:26.168Z,20.86
2018-07-19T06:58:34.221Z,20.88
2018-07-19T06:59:42.289Z,20.93
2018-07-19T07:00:50.373Z,21.05
2018-07-19T07:01:58.427Z,21.19
2018-07-19T07:03:06.522Z,21.23
2018-07-19T07:04:14.567Z,21.35
2018-07-19T07:05:22.647Z,21.53
2018-07-19T07:06:30.708Z,21.59
2018-07-19T07:07:38.808Z,21.69
2018-07-19T07:08:46.971Z,21.53
2018-07-19T07:09:54.909Z,21.66
2018-07-19T07:11:03.006Z,21.80
2018-07-19T07:12:11.082Z,21.75
2018-07-19T07:13:19.107Z,21.94
2018-07-19T07:14:27.571Z,21.94
2018-07-19T07:15:35.283Z,22.18
2018-07-19T07:16:43.359Z,22.40
2018-07-19T07:17:51.430Z,22.52
2018-07-19T07:18:59.463Z,22.62
2018-07-19T07:20:07.559Z,22.89
2018-07-19T07:21:15.712Z,23.07
2018-07-19T07:22:23.704Z,23.13
2018-07-19T07:23:31.765Z,23.29
2018-07-19T07:24:39.844Z,23.58
2018-07-19T07:25:47.937Z,23.92
2018-07-19T07:26:56.025Z,24.13
2018-07-19T07:28:04.042Z,24.81
2018-07-19T07:29:12.151Z,24.96
2018-07-19T07:30:22.826Z,25.52
2018-07-19T07:31:32.243Z,25.86
2018-07-19T07:32:38.964Z,26.19
2018-07-19T07:33:47.043Z,26.60
2018-07-19T07:34:58.204Z,27.08
2018-07-19T07:36:03.198Z,27.50
2018-07-19T07:37:11.275Z,27.93
2018-07-19T07:38:19.323Z,28.33
2018-07-19T07:39:27.441Z,29.03
2018-07-19T07:40:38.795Z,29.24
2018-07-19T07:41:43.758Z,29.46
2018-07-19T07:42:51.847Z,29.47
2018-07-19T07:43:59.917Z,29.52
2018-07-19T07:45:14.829Z,29.22
2018-07-19T07:46:18.857Z,29.49
2018-07-19T07:47:28.360Z,29.50
2018-07-19T07:48:36.471Z,29.71
2018-07-19T07:49:44.783Z,29.99
2018-07-19T07:50:52.807Z,30.06
2018-07-19T07:52:00.895Z,30.20
2018-07-19T07:53:08.965Z,30.21
2018-07-19T07:54:17.073Z,30.24
2018-07-19T07:55:25.170Z,30.43
2018-07-19T07:56:35.618Z,30.73
2018-07-19T07:57:46.321Z,30.95
2018-07-19T08:00:10.349Z,31.32
2018-07-19T08:01:18.417Z,31.62
2018-07-19T08:02:26.511Z,31.72
2018-07-19T08:03:34.608Z,31.74
2018-07-19T08:04:42.687Z,31.69
2018-07-19T08:05:50.801Z,31.59
2018-07-19T08:06:58.812Z,31.70
2018-07-19T08:08:06.989Z,31.72
2018-07-19T08:09:15.025Z,31.98
2018-07-19T08:10:23.085Z,32.00
2018-07-19T08:11:31.173Z,31.85
2018-07-19T08:12:39.254Z,31.62
2018-07-19T08:13:47.314Z,31.62
2018-07-19T08:14:55.434Z,31.72
2018-07-19T08:16:03.514Z,31.81
2018-07-19T08:17:11.632Z,32.16
2018-07-19T08:18:19.641Z,32.16
2018-07-19T08:19:27.784Z,31.50
2018-07-19T08:20:35.835Z,31.52
2018-07-19T08:21:43.959Z,31.64
2018-07-19T08:22:51.967Z,31.82
2018-07-19T08:24:00.088Z,31.86
2018-07-19T08:25:08.167Z,31.93
2018-07-19T08:26:16.248Z,32.07
2018-07-19T08:27:24.324Z,32.35
2018-07-19T08:28:32.398Z,32.57
2018-07-19T08:29:40.489Z,32.72
2018-07-19T08:30:48.554Z,32.68
2018-07-19T08:31:56.652Z,32.67
2018-07-19T08:33:05.080Z,32.81
2018-07-19T08:34:12.820Z,32.91
2018-07-19T08:35:20.895Z,33.01
2018-07-19T08:36:28.958Z,32.95
2018-07-19T08:37:37.078Z,32.91
2018-07-19T08:38:45.141Z,32.97
2018-07-19T08:39:53.237Z,33.01
2018-07-19T08:41:01.321Z,33.10
2018-07-19T08:42:09.395Z,33.05
2018-07-19T08:43:17.478Z,32.23
2018-07-19T08:44:25.570Z,31.92
2018-07-19T08:45:33.661Z,31.82
2018-07-19T08:46:41.741Z,31.59
2018-07-19T08:47:49.846Z,31.57
2018-07-19T08:48:57.905Z,31.62
2018-07-19T08:50:05.995Z,31.48
2018-07-19T08:51:14.083Z,31.72
2018-07-19T08:52:22.274Z,31.45
2018-07-19T08:53:30.295Z,31.36
2018-07-19T08:54:38.361Z,31.36
2018-07-19T08:55:46.405Z,31.18
2018-07-19T08:56:54.483Z,31.36
2018-07-19T08:58:02.572Z,31.44
2018-07-19T08:59:10.675Z,31.63
2018-07-19T09:00:18.771Z,31.55
2018-07-19T09:01:26.843Z,31.60
2018-07-19T09:02:34.920Z,31.77
2018-07-19T09:03:42.997Z,31.66
2018-07-19T09:04:51.083Z,31.45
2018-07-19T09:05:59.154Z,31.54
2018-07-19T09:07:07.252Z,31.50
2018-07-19T09:08:15.341Z,31.30
2018-07-19T09:09:23.411Z,31.32
2018-07-19T09:10:31.500Z,30.95
2018-07-19T09:11:39.603Z,30.88
2018-07-19T09:12:47.689Z,31.10
2018-07-19T09:13:55.754Z,31.32
2018-07-19T09:15:03.854Z,31.30
2018-07-19T09:16:11.921Z,31.32
2018-07-19T09:17:19.994Z,31.36
2018-07-19T09:18:28.086Z,31.45
2018-07-19T09:19:36.231Z,31.59
2018-07-19T09:20:44.249Z,31.87
2018-07-19T09:21:52.347Z,31.92
2018-07-19T09:23:00.488Z,31.86
2018-07-19T09:24:08.499Z,31.51
2018-07-19T09:25:16.627Z,31.22
2018-07-19T09:26:24.689Z,30.96
2018-07-19T09:27:32.753Z,30.88
2018-07-19T09:28:40.900Z,30.55
2018-07-19T09:29:48.961Z,30.56
2018-07-19T09:30:57.246Z,30.44
2018-07-19T09:32:05.104Z,30.23
2018-07-19T09:33:13.361Z,30.10
2018-07-19T09:34:21.552Z,29.79
2018-07-19T09:35:29.531Z,29.50
2018-07-19T09:36:37.637Z,29.09
2018-07-19T09:37:45.711Z,29.05
2018-07-19T09:38:53.794Z,28.94
2018-07-19T09:40:01.858Z,28.97
2018-07-19T09:41:09.937Z,28.70
2018-07-19T09:42:18.009Z,28.62
2018-07-19T09:43:26.125Z,28.65
2018-07-19T09:44:34.176Z,28.62
2018-07-19T09:45:42.510Z,28.43
2018-07-19T09:46:50.303Z,28.35
2018-07-19T09:47:58.615Z,28.30
2018-07-19T09:49:06.681Z,28.28
2018-07-19T09:50:14.780Z,28.01
2018-07-19T09:51:22.854Z,27.98
2018-07-19T09:52:30.920Z,27.97
2018-07-19T09:53:39.013Z,28.04
2018-07-19T09:54:47.230Z,28.00
2018-07-19T09:55:55.221Z,27.93
2018-07-19T09:57:03.493Z,27.81
2018-07-19T09:58:11.317Z,27.67
2018-07-19T09:59:19.401Z,27.55
2018-07-19T10:00:27.469Z,27.60
2018-07-19T10:01:35.548Z,27.63
2018-07-19T10:02:43.624Z,27.78
2018-07-19T10:03:51.689Z,27.83
2018-07-19T10:04:59.767Z,27.85
2018-07-19T10:06:07.863Z,28.01
2018-07-19T10:07:15.934Z,28.06
2018-07-19T10:08:24.002Z,28.09
2018-07-19T10:09:32.069Z,28.15
2018-07-19T10:10:40.148Z,28.18
2018-07-19T10:11:48.240Z,28.15
2018-07-19T10:12:56.317Z,28.25
2018-07-19T10:14:04.401Z,28.20
2018-07-19T10:15:12.464Z,28.08
2018-07-19T10:16:20.527Z,28.15
2018-07-19T10:17:28.607Z,28.16
2018-07-19T10:18:36.691Z,28.00
2018-07-19T10:19:44.745Z,27.98
2018-07-19T10:20:52.835Z,28.00
2018-07-19T10:22:00.908Z,28.01
2018-07-19T10:23:08.993Z,28.08
2018-07-19T10:24:17.103Z,28.19
2018-07-19T10:25:25.232Z,28.28
2018-07-19T10:26:33.254Z,28.31
2018-07-19T10:27:41.280Z,28.49
2018-07-19T10:28:49.333Z,28.45
2018-07-19T10:29:57.433Z,28.50
2018-07-19T10:31:05.506Z,28.67
2018-07-19T10:32:13.747Z,28.68
2018-07-19T10:33:21.664Z,28.70
2018-07-19T10:34:29.796Z,28.71
2018-07-19T10:35:37.812Z,28.62
2018-07-19T10:36:45.881Z,28.56
2018-07-19T10:37:53.984Z,28.65
2018-07-19T10:39:02.037Z,28.68
2018-07-19T10:40:10.149Z,28.71
2018-07-19T10:41:18.169Z,28.78
2018-07-19T10:42:26.278Z,28.80
2018-07-19T10:43:34.340Z,28.83
2018-07-19T10:44:42.413Z,28.90
2018-07-19T10:45:50.482Z,28.93
2018-07-19T10:46:58.547Z,28.89
2018-07-19T10:48:06.647Z,28.87
2018-07-19T10:49:15.775Z,28.82
2018-07-19T10:50:22.779Z,28.94
2018-07-19T10:51:30.921Z,28.89
2018-07-19T10:52:39.169Z,28.83
2018-07-19T10:53:47.008Z,28.92
2018-07-19T10:54:55.095Z,28.94
2018-07-19T10:56:03.178Z,29.00
2018-07-19T10:57:11.227Z,28.97
2018-07-19T10:58:19.290Z,29.07
2018-07-19T10:59:27.378Z,29.13
2018-07-19T11:00:35.470Z,29.03
2018-07-19T16:59:09.318Z,26.61
2018-07-19T17:00:18.765Z,26.61
2018-07-19T17:01:25.595Z,26.64
2018-07-19T17:02:33.764Z,26.66
2018-07-19T17:03:42.299Z,26.70
2018-07-19T17:04:50.108Z,26.78
2018-07-19T17:05:58.953Z,26.70
2018-07-19T17:07:06.366Z,26.83
2018-07-19T17:08:14.847Z,26.79
2018-07-19T17:09:22.192Z,26.88
2018-07-19T17:10:30.530Z,26.79
2018-07-19T17:11:38.697Z,26.86
2018-07-19T17:12:46.651Z,26.74
2018-07-19T17:13:54.764Z,26.60
2018-07-19T17:15:03.046Z,26.59
2018-07-19T17:16:10.789Z,26.49
2018-07-19T17:17:18.897Z,26.48
2018-07-19T17:18:26.932Z,26.39
2018-07-19T17:19:35.004Z,26.36
2018-07-19T17:20:43.076Z,26.41
2018-07-19T17:21:51.141Z,26.23
2018-07-19T17:22:59.202Z,26.31
2018-07-19T17:24:07.284Z,26.16
2018-07-19T17:25:15.342Z,26.27
2018-07-19T17:26:23.428Z,26.19
2018-07-19T17:27:31.559Z,26.23
2018-07-19T17:28:39.582Z,26.19
2018-07-19T17:29:47.710Z,26.04
2018-07-19T17:30:55.705Z,25.99
2018-07-19T17:32:04.014Z,25.93
2018-07-19T17:33:12.067Z,25.92
2018-07-19T17:34:39.371Z,25.93
2018-07-19T17:35:29.304Z,25.85
2018-07-19T17:36:36.322Z,25.91
2018-07-19T17:37:45.356Z,25.88
2018-07-19T17:38:52.711Z,25.77
2018-07-19T17:40:00.511Z,25.70
2018-07-19T17:41:08.575Z,25.73
2018-07-19T17:42:16.652Z,25.70
2018-07-19T17:43:24.729Z,25.71
2018-07-19T17:44:32.845Z,25.73
2018-07-19T17:45:41.141Z,25.59
2018-07-19T17:46:50.207Z,25.56
2018-07-19T17:47:57.030Z,25.62
2018-07-19T17:49:05.077Z,25.55
2018-07-19T17:50:13.160Z,25.61
2018-07-19T17:51:21.230Z,25.59
2018-07-19T17:52:29.315Z,25.68
2018-07-19T17:53:37.614Z,25.59
2018-07-19T17:54:45.693Z,25.71
2018-07-19T17:55:53.737Z,25.74
2018-07-19T17:57:02.006Z,25.73
2018-07-19T17:58:10.087Z,25.66
2018-07-19T17:59:18.169Z,25.73
2018-07-19T18:00:26.531Z,25.58
2018-07-19T18:01:34.320Z,25.68
2018-07-19T18:02:42.386Z,25.59
2018-07-19T18:03:50.470Z,25.62
2018-07-19T18:04:58.533Z,25.63
2018-07-19T18:06:06.592Z,25.71
2018-07-19T18:07:14.966Z,25.59
2018-07-19T18:08:22.960Z,25.59
2018-07-19T18:09:31.004Z,25.62
2018-07-19T18:10:39.083Z,25.46
2018-07-19T18:11:47.172Z,25.41
2018-07-19T18:12:55.237Z,25.39
2018-07-19T18:14:03.306Z,25.34
2018-07-19T18:15:11.385Z,25.21
2018-07-19T18:16:19.438Z,25.26
2018-07-19T18:17:27.545Z,25.14
2018-07-19T18:18:35.588Z,25.15
2018-07-19T18:19:43.657Z,25.06
2018-07-19T18:20:52.053Z,25.15
2018-07-19T18:21:59.840Z,25.09
2018-07-19T18:23:07.884Z,25.00
2018-07-19T18:24:15.941Z,24.97
2018-07-19T18:25:24.031Z,24.84
2018-07-19T18:26:32.127Z,24.86
2018-07-19T18:27:41.216Z,24.85
2018-07-19T18:28:48.246Z,24.75
2018-07-19T18:29:56.643Z,24.62
2018-07-19T18:31:04.591Z,24.58
2018-07-19T18:32:12.668Z,24.38
2018-07-19T18:33:20.817Z,24.32
2018-07-19T18:34:28.804Z,24.28
2018-07-19T18:35:36.878Z,24.14
2018-07-19T18:36:44.941Z,24.09
2018-07-19T18:37:53.220Z,23.94
2018-07-19T18:39:01.401Z,23.85
2018-07-19T18:40:09.377Z,23.76
2018-07-19T18:41:17.444Z,23.59
2018-07-19T18:42:25.503Z,23.52
2018-07-19T18:43:33.583Z,23.52
2018-07-19T18:44:42.085Z,23.37
2018-07-19T18:45:50.147Z,23.32
2018-07-19T18:46:58.202Z,23.26
2018-07-19T18:48:06.545Z,23.23
2018-07-19T18:49:14.354Z,23.14
2018-07-19T18:50:23.233Z,23.08
2018-07-19T18:51:30.549Z,23.01
2018-07-19T18:52:39.792Z,23.04
2018-07-19T18:53:47.871Z,22.98
2018-07-19T18:54:55.919Z,22.88
2018-07-19T18:56:03.987Z,22.88
2018-07-19T18:57:12.275Z,22.81
2018-07-19T18:58:20.330Z,22.83
2018-07-19T18:59:28.407Z,22.74
2018-07-19T19:00:36.481Z,22.63
2018-07-19T19:01:44.556Z,22.77
2018-07-19T19:02:52.618Z,22.65
2018-07-19T19:04:00.739Z,22.61
2018-07-19T19:05:08.770Z,22.67
2018-07-19T19:06:19.212Z,22.55
2018-07-19T19:07:24.994Z,22.58
2018-07-19T19:08:32.980Z,22.52
2018-07-19T19:09:41.331Z,22.55
2018-07-19T19:10:52.179Z,22.46
2018-07-19T19:11:58.190Z,22.49
2018-07-19T19:13:08.472Z,22.51
2018-07-19T19:14:16.562Z,22.46
2018-07-19T19:15:24.684Z,22.43
2018-07-19T19:16:32.689Z,22.46
2018-07-19T19:17:40.780Z,22.41
2018-07-19T19:18:48.838Z,22.41
2018-07-19T19:19:56.893Z,22.41
2018-07-19T19:21:04.961Z,22.37
2018-07-19T19:22:13.355Z,22.30
2018-07-19T19:23:21.090Z,22.36
2018-07-19T19:24:29.200Z,22.31
2018-07-19T19:25:37.514Z,22.25
2018-07-19T19:26:45.315Z,22.34
2018-07-19T19:27:53.401Z,22.25
2018-07-19T19:29:01.557Z,22.25
2018-07-19T19:30:09.560Z,22.19
2018-07-19T19:31:17.603Z,22.16
2018-07-19T19:32:25.998Z,22.22
2018-07-19T19:33:33.743Z,22.15
2018-07-19T19:34:41.826Z,22.19
2018-07-19T19:35:49.894Z,22.12
2018-07-19T19:36:58.076Z,22.07
2018-07-19T19:38:06.041Z,22.15
2018-07-19T19:39:14.098Z,22.06
2018-07-19T19:40:22.235Z,22.10
2018-07-19T19:41:30.252Z,22.06
2018-07-19T19:42:38.746Z,22.00
2018-07-19T19:43:46.364Z,21.89
2018-07-19T19:44:54.517Z,21.91
2018-07-19T19:46:02.513Z,21.88
2018-07-19T19:47:11.165Z,21.91
2018-07-19T19:48:18.668Z,21.80
2018-07-19T19:49:27.145Z,21.78
2018-07-19T19:50:34.821Z,21.70
2018-07-19T19:51:43.502Z,21.72
2018-07-19T19:52:50.935Z,21.75
2018-07-19T19:53:59.119Z,21.68
2018-07-19T19:55:07.676Z,21.66
2018-07-19T19:56:15.324Z,21.69
2018-07-19T19:57:23.241Z,21.68
2018-07-19T19:58:31.282Z,21.62
2018-07-19T19:59:40.051Z,21.62
2018-07-19T20:00:47.456Z,21.70
2018-07-19T20:01:55.554Z,21.62
2018-07-19T20:03:05.226Z,21.74
2018-07-19T20:04:12.428Z,21.66
2018-07-19T20:05:20.560Z,21.65
2018-07-19T20:06:29.062Z,21.59
2018-07-19T20:07:36.337Z,21.65
2018-07-19T20:08:44.281Z,21.58
2018-07-19T20:09:53.694Z,21.53
2018-07-19T20:11:00.243Z,21.50
2018-07-19T20:12:08.732Z,21.47
2018-07-19T20:13:16.929Z,21.33
2018-07-19T20:14:24.650Z,21.40
2018-07-19T20:15:34.110Z,21.33
2018-07-19T20:16:40.903Z,21.33
2018-07-19T20:17:49.141Z,21.32
2018-07-19T20:18:57.217Z,21.32
2018-07-19T20:20:05.439Z,21.25
2018-07-19T20:21:13.326Z,21.28
2018-07-19T20:22:21.155Z,21.26
2018-07-19T20:23:29.254Z,21.30
2018-07-19T20:24:37.392Z,21.19
2018-07-19T20:25:45.374Z,21.28
2018-07-19T20:26:54.701Z,21.28
2018-07-19T20:28:02.183Z,21.26
2018-07-19T20:29:10.609Z,21.22
2018-07-19T20:30:17.865Z,21.25
2018-07-19T20:31:26.383Z,21.28
2018-07-19T20:32:34.583Z,21.14
2018-07-19T20:33:42.459Z,21.17
2018-07-19T20:34:50.720Z,21.14
2018-07-19T20:36:00.122Z,21.22